KLHM

Lincoln Regional / Karl Harder Field Airport

Lincoln, California, USA
METAR KLHM 231415Z AUTO 00000KT 10SM CLR M05/M06 A3028 RMK AO1
Observed Flight Rules
Feb-23 @ 14:15 UTC (25 minutes ago) Visual Flight Rules
Wind Visibility Clouds
Calm 10 miles
  • Clear skies
Temperatures Readings
Current -5°C / 23°F
Dewpoint -6°C / 21°F
Humidity 93%
Altimeter 30.28" Hg
Pressure 1025 hPa
Elevation 37
METAR KLHM 231415Z AUTO 00000KT 10SM CLR M05/M06 A3028 RMK AO1
Observed Flight Rules
Feb-23 @ 14:15 UTC
(25 minutes ago)
VFR
Wind Visibility
Calm 10 miles
Clouds
  • Clear skies
Temperature Dewpoint
-5°C / 23°F -6°C / 21°F
Humidity Altimeter Pressure
93% 30.28" Hg 1025 hPa